sensor_id;sensor_type;location;lat;lon;timestamp;P1;durP1;ratioP1;P2;durP2;ratioP2
54883;SDS011;40776;52.880;6.016;2023-05-07T00:00:32;22.77;;;15.65;;
54883;SDS011;40776;52.880;6.016;2023-05-07T00:02:59;24.38;;;15.23;;
54883;SDS011;40776;52.880;6.016;2023-05-07T00:05:26;26.50;;;16.20;;
54883;SDS011;40776;52.880;6.016;2023-05-07T00:07:52;26.45;;;16.38;;
54883;SDS011;40776;52.880;6.016;2023-05-07T00:10:18;24.20;;;16.80;;
54883;SDS011;40776;52.880;6.016;2023-05-07T00:12:44;24.55;;;16.92;;
54883;SDS011;40776;52.880;6.016;2023-05-07T00:15:10;25.83;;;16.90;;
54883;SDS011;40776;52.880;6.016;2023-05-07T00:17:37;27.85;;;17.13;;
54883;SDS011;40776;52.880;6.016;2023-05-07T00:20:03;24.50;;;16.63;;
54883;SDS011;40776;52.880;6.016;2023-05-07T00:22:30;26.98;;;16.23;;
54883;SDS011;40776;52.880;6.016;2023-05-07T00:24:57;26.98;;;17.48;;
54883;SDS011;40776;52.880;6.016;2023-05-07T00:27:23;25.67;;;17.48;;
54883;SDS011;40776;52.880;6.016;2023-05-07T00:29:49;23.58;;;16.52;;
54883;SDS011;40776;52.880;6.016;2023-05-07T00:32:15;24.02;;;15.50;;
54883;SDS011;40776;52.880;6.016;2023-05-07T00:34:41;25.45;;;15.68;;
54883;SDS011;40776;52.880;6.016;2023-05-07T00:37:07;26.30;;;16.80;;
54883;SDS011;40776;52.880;6.016;2023-05-07T00:39:34;23.13;;;17.17;;
54883;SDS011;40776;52.880;6.016;2023-05-07T00:42:00;23.38;;;17.45;;
54883;SDS011;40776;52.880;6.016;2023-05-07T00:44:26;30.20;;;19.40;;
54883;SDS011;40776;52.880;6.016;2023-05-07T00:46:53;24.63;;;18.58;;
54883;SDS011;40776;52.880;6.016;2023-05-07T00:49:19;28.08;;;19.27;;
54883;SDS011;40776;52.880;6.016;2023-05-07T00:51:46;28.20;;;19.90;;
54883;SDS011;40776;52.880;6.016;2023-05-07T00:54:12;31.13;;;19.65;;
54883;SDS011;40776;52.880;6.016;2023-05-07T00:56:39;26.85;;;18.92;;
54883;SDS011;40776;52.880;6.016;2023-05-07T00:59:05;28.67;;;19.33;;
54883;SDS011;40776;52.880;6.016;2023-05-07T01:01:31;27.92;;;20.27;;
54883;SDS011;40776;52.880;6.016;2023-05-07T01:03:57;28.95;;;18.90;;
54883;SDS011;40776;52.880;6.016;2023-05-07T01:06:24;29.90;;;19.15;;
54883;SDS011;40776;52.880;6.016;2023-05-07T01:08:52;30.38;;;18.48;;
54883;SDS011;40776;52.880;6.016;2023-05-07T01:11:21;32.20;;;18.35;;
54883;SDS011;40776;52.880;6.016;2023-05-07T01:13:47;31.08;;;19.42;;
54883;SDS011;40776;52.880;6.016;2023-05-07T01:16:15;26.17;;;17.92;;
54883;SDS011;40776;52.880;6.016;2023-05-07T01:18:41;25.60;;;17.85;;
54883;SDS011;40776;52.880;6.016;2023-05-07T01:21:07;28.35;;;17.95;;
54883;SDS011;40776;52.880;6.016;2023-05-07T01:23:36;27.23;;;18.10;;
54883;SDS011;40776;52.880;6.016;2023-05-07T01:26:03;31.25;;;17.38;;
54883;SDS011;40776;52.880;6.016;2023-05-07T01:28:29;28.23;;;18.23;;
54883;SDS011;40776;52.880;6.016;2023-05-07T01:30:56;27.73;;;16.92;;
54883;SDS011;40776;52.880;6.016;2023-05-07T01:33:24;23.80;;;16.63;;
54883;SDS011;40776;52.880;6.016;2023-05-07T01:35:51;28.50;;;16.45;;
54883;SDS011;40776;52.880;6.016;2023-05-07T01:38:19;27.95;;;16.63;;
54883;SDS011;40776;52.880;6.016;2023-05-07T01:40:47;29.13;;;16.77;;
54883;SDS011;40776;52.880;6.016;2023-05-07T01:43:13;24.90;;;16.10;;
54883;SDS011;40776;52.880;6.016;2023-05-07T01:45:39;24.92;;;15.88;;
54883;SDS011;40776;52.880;6.016;2023-05-07T01:48:06;22.83;;;16.67;;
54883;SDS011;40776;52.880;6.016;2023-05-07T01:50:32;24.00;;;17.38;;
54883;SDS011;40776;52.880;6.016;2023-05-07T01:52:59;27.10;;;15.95;;
54883;SDS011;40776;52.880;6.016;2023-05-07T01:55:27;22.25;;;15.52;;
54883;SDS011;40776;52.880;6.016;2023-05-07T01:57:53;27.15;;;16.55;;
54883;SDS011;40776;52.880;6.016;2023-05-07T02:00:19;24.05;;;15.50;;
54883;SDS011;40776;52.880;6.016;2023-05-07T02:02:45;24.17;;;14.43;;
54883;SDS011;40776;52.880;6.016;2023-05-07T02:05:11;22.52;;;15.05;;
54883;SDS011;40776;52.880;6.016;2023-05-07T02:07:37;20.00;;;14.00;;
54883;SDS011;40776;52.880;6.016;2023-05-07T02:10:03;21.88;;;13.88;;
54883;SDS011;40776;52.880;6.016;2023-05-07T02:12:30;20.80;;;13.82;;
54883;SDS011;40776;52.880;6.016;2023-05-07T02:14:56;23.80;;;14.18;;
54883;SDS011;40776;52.880;6.016;2023-05-07T02:17:22;23.25;;;15.30;;
54883;SDS011;40776;52.880;6.016;2023-05-07T02:19:48;21.50;;;13.27;;
54883;SDS011;40776;52.880;6.016;2023-05-07T02:22:14;22.42;;;14.27;;
54883;SDS011;40776;52.880;6.016;2023-05-07T02:24:40;19.88;;;13.40;;
54883;SDS011;40776;52.880;6.016;2023-05-07T02:27:06;21.95;;;13.35;;
54883;SDS011;40776;52.880;6.016;2023-05-07T02:29:32;21.92;;;14.38;;
54883;SDS011;40776;52.880;6.016;2023-05-07T02:31:58;17.73;;;12.77;;
54883;SDS011;40776;52.880;6.016;2023-05-07T02:34:24;20.77;;;13.93;;
54883;SDS011;40776;52.880;6.016;2023-05-07T02:36:51;21.00;;;13.38;;
54883;SDS011;40776;52.880;6.016;2023-05-07T02:39:17;22.55;;;13.73;;
54883;SDS011;40776;52.880;6.016;2023-05-07T02:41:43;23.35;;;14.35;;
54883;SDS011;40776;52.880;6.016;2023-05-07T02:44:09;22.67;;;14.50;;
54883;SDS011;40776;52.880;6.016;2023-05-07T02:46:35;22.00;;;14.95;;
54883;SDS011;40776;52.880;6.016;2023-05-07T02:49:01;25.20;;;15.35;;
54883;SDS011;40776;52.880;6.016;2023-05-07T02:51:27;21.10;;;15.27;;
54883;SDS011;40776;52.880;6.016;2023-05-07T02:53:53;22.85;;;16.23;;
54883;SDS011;40776;52.880;6.016;2023-05-07T02:56:20;23.88;;;15.73;;
54883;SDS011;40776;52.880;6.016;2023-05-07T02:58:46;24.52;;;18.00;;
54883;SDS011;40776;52.880;6.016;2023-05-07T03:01:12;26.38;;;16.50;;
54883;SDS011;40776;52.880;6.016;2023-05-07T03:03:39;25.30;;;16.05;;
54883;SDS011;40776;52.880;6.016;2023-05-07T03:06:05;25.77;;;16.45;;
54883;SDS011;40776;52.880;6.016;2023-05-07T03:08:32;24.20;;;17.75;;
54883;SDS011;40776;52.880;6.016;2023-05-07T03:10:58;25.02;;;17.80;;
54883;SDS011;40776;52.880;6.016;2023-05-07T03:13:24;30.23;;;18.95;;
54883;SDS011;40776;52.880;6.016;2023-05-07T03:15:50;28.65;;;18.23;;
54883;SDS011;40776;52.880;6.016;2023-05-07T03:18:16;25.73;;;18.25;;
54883;SDS011;40776;52.880;6.016;2023-05-07T03:20:42;28.42;;;18.48;;
54883;SDS011;40776;52.880;6.016;2023-05-07T03:23:08;29.92;;;19.05;;
54883;SDS011;40776;52.880;6.016;2023-05-07T03:25:34;29.60;;;18.33;;
54883;SDS011;40776;52.880;6.016;2023-05-07T03:28:00;30.45;;;18.88;;
54883;SDS011;40776;52.880;6.016;2023-05-07T03:30:26;26.77;;;17.83;;
54883;SDS011;40776;52.880;6.016;2023-05-07T03:32:52;27.92;;;18.95;;
54883;SDS011;40776;52.880;6.016;2023-05-07T03:35:18;27.42;;;18.45;;
54883;SDS011;40776;52.880;6.016;2023-05-07T03:37:45;28.83;;;18.92;;
54883;SDS011;40776;52.880;6.016;2023-05-07T03:40:11;29.35;;;18.70;;
54883;SDS011;40776;52.880;6.016;2023-05-07T03:42:37;33.33;;;19.85;;
54883;SDS011;40776;52.880;6.016;2023-05-07T03:45:03;28.77;;;19.58;;
54883;SDS011;40776;52.880;6.016;2023-05-07T03:47:29;31.48;;;19.17;;
54883;SDS011;40776;52.880;6.016;2023-05-07T03:49:55;33.25;;;20.15;;
54883;SDS011;40776;52.880;6.016;2023-05-07T03:52:21;33.45;;;20.45;;
54883;SDS011;40776;52.880;6.016;2023-05-07T03:54:51;28.10;;;18.73;;
54883;SDS011;40776;52.880;6.016;2023-05-07T03:57:17;32.08;;;21.48;;
54883;SDS011;40776;52.880;6.016;2023-05-07T03:59:43;29.70;;;19.77;;
54883;SDS011;40776;52.880;6.016;2023-05-07T04:02:09;29.63;;;20.35;;
54883;SDS011;40776;52.880;6.016;2023-05-07T04:04:35;30.58;;;19.48;;
54883;SDS011;40776;52.880;6.016;2023-05-07T04:07:01;30.95;;;20.27;;
54883;SDS011;40776;52.880;6.016;2023-05-07T04:09:28;33.65;;;20.40;;
54883;SDS011;40776;52.880;6.016;2023-05-07T04:11:54;35.22;;;20.55;;
54883;SDS011;40776;52.880;6.016;2023-05-07T04:14:20;31.77;;;20.15;;
54883;SDS011;40776;52.880;6.016;2023-05-07T04:16:46;31.52;;;19.63;;
54883;SDS011;40776;52.880;6.016;2023-05-07T04:19:12;32.38;;;21.00;;
54883;SDS011;40776;52.880;6.016;2023-05-07T04:21:38;32.83;;;22.73;;
54883;SDS011;40776;52.880;6.016;2023-05-07T04:24:05;35.30;;;20.63;;
54883;SDS011;40776;52.880;6.016;2023-05-07T04:26:31;37.22;;;22.50;;
54883;SDS011;40776;52.880;6.016;2023-05-07T04:28:57;35.83;;;21.10;;
54883;SDS011;40776;52.880;6.016;2023-05-07T04:31:24;32.95;;;20.95;;
54883;SDS011;40776;52.880;6.016;2023-05-07T04:33:50;37.25;;;22.92;;
54883;SDS011;40776;52.880;6.016;2023-05-07T04:36:17;35.30;;;22.17;;
54883;SDS011;40776;52.880;6.016;2023-05-07T04:38:43;32.90;;;21.65;;
54883;SDS011;40776;52.880;6.016;2023-05-07T04:41:12;33.70;;;21.92;;
54883;SDS011;40776;52.880;6.016;2023-05-07T04:43:38;36.47;;;22.65;;
54883;SDS011;40776;52.880;6.016;2023-05-07T04:46:05;36.58;;;23.10;;
54883;SDS011;40776;52.880;6.016;2023-05-07T04:48:31;36.28;;;23.08;;
54883;SDS011;40776;52.880;6.016;2023-05-07T04:50:57;38.30;;;24.15;;
54883;SDS011;40776;52.880;6.016;2023-05-07T04:53:23;41.33;;;23.00;;
54883;SDS011;40776;52.880;6.016;2023-05-07T04:55:54;36.80;;;22.65;;
54883;SDS011;40776;52.880;6.016;2023-05-07T04:58:20;40.65;;;24.13;;
54883;SDS011;40776;52.880;6.016;2023-05-07T05:00:46;39.38;;;24.05;;
54883;SDS011;40776;52.880;6.016;2023-05-07T05:03:12;37.20;;;23.02;;
54883;SDS011;40776;52.880;6.016;2023-05-07T05:05:38;40.80;;;24.42;;
54883;SDS011;40776;52.880;6.016;2023-05-07T05:08:04;38.33;;;24.20;;
54883;SDS011;40776;52.880;6.016;2023-05-07T05:10:30;38.40;;;23.95;;
54883;SDS011;40776;52.880;6.016;2023-05-07T05:12:56;41.22;;;24.52;;
54883;SDS011;40776;52.880;6.016;2023-05-07T05:15:23;43.05;;;25.42;;
54883;SDS011;40776;52.880;6.016;2023-05-07T05:17:49;40.63;;;24.90;;
54883;SDS011;40776;52.880;6.016;2023-05-07T05:20:15;42.95;;;24.50;;
54883;SDS011;40776;52.880;6.016;2023-05-07T05:22:41;41.75;;;25.67;;
54883;SDS011;40776;52.880;6.016;2023-05-07T05:25:07;42.75;;;24.33;;
54883;SDS011;40776;52.880;6.016;2023-05-07T05:27:34;39.33;;;24.63;;
54883;SDS011;40776;52.880;6.016;2023-05-07T05:30:00;42.78;;;24.75;;
54883;SDS011;40776;52.880;6.016;2023-05-07T05:32:26;44.78;;;25.65;;
54883;SDS011;40776;52.880;6.016;2023-05-07T05:34:52;39.97;;;25.05;;
54883;SDS011;40776;52.880;6.016;2023-05-07T05:37:19;39.30;;;25.00;;
54883;SDS011;40776;52.880;6.016;2023-05-07T05:39:45;39.80;;;24.13;;
54883;SDS011;40776;52.880;6.016;2023-05-07T05:42:11;43.47;;;26.27;;
54883;SDS011;40776;52.880;6.016;2023-05-07T05:44:37;44.55;;;25.50;;
54883;SDS011;40776;52.880;6.016;2023-05-07T05:47:03;38.88;;;23.65;;
54883;SDS011;40776;52.880;6.016;2023-05-07T05:49:30;38.83;;;22.75;;
54883;SDS011;40776;52.880;6.016;2023-05-07T05:51:56;42.05;;;25.27;;
54883;SDS011;40776;52.880;6.016;2023-05-07T05:54:22;43.13;;;26.10;;
54883;SDS011;40776;52.880;6.016;2023-05-07T05:56:48;41.97;;;25.38;;
54883;SDS011;40776;52.880;6.016;2023-05-07T05:59:14;41.25;;;25.80;;
54883;SDS011;40776;52.880;6.016;2023-05-07T06:01:40;43.30;;;25.13;;
54883;SDS011;40776;52.880;6.016;2023-05-07T06:04:06;41.83;;;25.27;;
54883;SDS011;40776;52.880;6.016;2023-05-07T06:06:32;40.40;;;24.30;;
54883;SDS011;40776;52.880;6.016;2023-05-07T06:08:58;40.63;;;25.38;;
54883;SDS011;40776;52.880;6.016;2023-05-07T06:11:24;41.67;;;25.13;;
54883;SDS011;40776;52.880;6.016;2023-05-07T06:13:51;42.08;;;25.95;;
54883;SDS011;40776;52.880;6.016;2023-05-07T06:16:17;41.75;;;24.35;;
54883;SDS011;40776;52.880;6.016;2023-05-07T06:18:43;38.83;;;23.85;;
54883;SDS011;40776;52.880;6.016;2023-05-07T06:21:11;40.08;;;22.88;;
54883;SDS011;40776;52.880;6.016;2023-05-07T06:23:37;36.17;;;24.02;;
54883;SDS011;40776;52.880;6.016;2023-05-07T06:26:03;41.22;;;23.70;;
54883;SDS011;40776;52.880;6.016;2023-05-07T06:28:29;46.50;;;24.70;;
54883;SDS011;40776;52.880;6.016;2023-05-07T06:33:39;38.72;;;22.90;;
54883;SDS011;40776;52.880;6.016;2023-05-07T06:36:05;37.13;;;23.27;;
54883;SDS011;40776;52.880;6.016;2023-05-07T06:38:31;40.50;;;24.48;;
54883;SDS011;40776;52.880;6.016;2023-05-07T06:40:57;33.67;;;22.55;;
54883;SDS011;40776;52.880;6.016;2023-05-07T06:43:23;34.90;;;23.30;;
54883;SDS011;40776;52.880;6.016;2023-05-07T06:45:49;32.30;;;21.67;;
54883;SDS011;40776;52.880;6.016;2023-05-07T06:48:15;32.80;;;21.23;;
54883;SDS011;40776;52.880;6.016;2023-05-07T06:50:41;34.00;;;21.08;;
54883;SDS011;40776;52.880;6.016;2023-05-07T06:53:07;37.83;;;22.10;;
54883;SDS011;40776;52.880;6.016;2023-05-07T06:55:33;36.05;;;22.73;;
54883;SDS011;40776;52.880;6.016;2023-05-07T06:58:00;33.67;;;21.40;;
54883;SDS011;40776;52.880;6.016;2023-05-07T07:00:26;37.00;;;22.30;;
54883;SDS011;40776;52.880;6.016;2023-05-07T07:02:53;33.50;;;22.10;;
54883;SDS011;40776;52.880;6.016;2023-05-07T07:05:19;30.92;;;20.75;;
54883;SDS011;40776;52.880;6.016;2023-05-07T07:07:45;30.85;;;21.08;;
54883;SDS011;40776;52.880;6.016;2023-05-07T07:10:18;30.73;;;19.80;;
54883;SDS011;40776;52.880;6.016;2023-05-07T07:12:44;29.00;;;19.38;;
54883;SDS011;40776;52.880;6.016;2023-05-07T07:15:10;28.92;;;20.13;;
54883;SDS011;40776;52.880;6.016;2023-05-07T07:17:36;30.20;;;20.23;;
54883;SDS011;40776;52.880;6.016;2023-05-07T07:20:03;31.08;;;20.05;;
54883;SDS011;40776;52.880;6.016;2023-05-07T07:22:29;26.77;;;19.20;;
54883;SDS011;40776;52.880;6.016;2023-05-07T07:24:55;32.63;;;21.50;;
54883;SDS011;40776;52.880;6.016;2023-05-07T07:27:21;32.17;;;20.20;;
54883;SDS011;40776;52.880;6.016;2023-05-07T07:29:47;31.33;;;20.25;;
54883;SDS011;40776;52.880;6.016;2023-05-07T07:32:13;29.98;;;20.45;;
54883;SDS011;40776;52.880;6.016;2023-05-07T07:34:39;30.55;;;18.63;;
54883;SDS011;40776;52.880;6.016;2023-05-07T07:37:05;28.90;;;20.05;;
54883;SDS011;40776;52.880;6.016;2023-05-07T07:39:32;29.02;;;19.38;;
54883;SDS011;40776;52.880;6.016;2023-05-07T07:41:58;29.50;;;19.13;;
54883;SDS011;40776;52.880;6.016;2023-05-07T07:44:24;28.05;;;18.70;;
54883;SDS011;40776;52.880;6.016;2023-05-07T07:46:50;27.42;;;18.70;;
54883;SDS011;40776;52.880;6.016;2023-05-07T07:49:16;26.92;;;17.30;;
54883;SDS011;40776;52.880;6.016;2023-05-07T07:51:42;28.02;;;19.63;;
54883;SDS011;40776;52.880;6.016;2023-05-07T07:54:09;28.10;;;20.17;;
54883;SDS011;40776;52.880;6.016;2023-05-07T07:56:35;29.25;;;20.33;;
54883;SDS011;40776;52.880;6.016;2023-05-07T07:59:01;26.98;;;18.65;;
54883;SDS011;40776;52.880;6.016;2023-05-07T08:01:29;27.70;;;18.25;;
54883;SDS011;40776;52.880;6.016;2023-05-07T08:03:55;29.52;;;19.83;;
54883;SDS011;40776;52.880;6.016;2023-05-07T08:06:23;28.90;;;18.52;;
54883;SDS011;40776;52.880;6.016;2023-05-07T08:08:50;27.13;;;18.75;;
54883;SDS011;40776;52.880;6.016;2023-05-07T08:11:16;27.48;;;18.92;;
54883;SDS011;40776;52.880;6.016;2023-05-07T08:13:42;25.67;;;17.48;;
54883;SDS011;40776;52.880;6.016;2023-05-07T08:16:10;26.83;;;17.88;;
54883;SDS011;40776;52.880;6.016;2023-05-07T08:18:36;29.52;;;19.15;;
54883;SDS011;40776;52.880;6.016;2023-05-07T08:21:02;27.65;;;17.80;;
54883;SDS011;40776;52.880;6.016;2023-05-07T08:23:28;27.98;;;19.40;;
54883;SDS011;40776;52.880;6.016;2023-05-07T08:25:54;29.00;;;19.77;;
54883;SDS011;40776;52.880;6.016;2023-05-07T08:28:20;27.60;;;17.75;;
54883;SDS011;40776;52.880;6.016;2023-05-07T08:30:46;28.08;;;18.92;;
54883;SDS011;40776;52.880;6.016;2023-05-07T08:33:12;26.98;;;18.48;;
54883;SDS011;40776;52.880;6.016;2023-05-07T08:35:38;28.23;;;19.17;;
54883;SDS011;40776;52.880;6.016;2023-05-07T08:38:04;28.42;;;19.23;;
54883;SDS011;40776;52.880;6.016;2023-05-07T08:40:32;25.55;;;18.08;;
54883;SDS011;40776;52.880;6.016;2023-05-07T08:43:01;28.20;;;19.92;;
54883;SDS011;40776;52.880;6.016;2023-05-07T08:45:27;25.90;;;18.05;;
54883;SDS011;40776;52.880;6.016;2023-05-07T08:48:01;26.70;;;19.25;;
54883;SDS011;40776;52.880;6.016;2023-05-07T08:50:28;31.52;;;21.08;;
54883;SDS011;40776;52.880;6.016;2023-05-07T08:52:54;26.23;;;18.15;;
54883;SDS011;40776;52.880;6.016;2023-05-07T08:55:21;26.67;;;19.15;;
54883;SDS011;40776;52.880;6.016;2023-05-07T08:57:48;66.50;;;26.95;;
54883;SDS011;40776;52.880;6.016;2023-05-07T09:00:14;27.17;;;18.75;;
54883;SDS011;40776;52.880;6.016;2023-05-07T09:02:40;30.35;;;19.98;;
54883;SDS011;40776;52.880;6.016;2023-05-07T09:05:06;41.47;;;21.15;;
54883;SDS011;40776;52.880;6.016;2023-05-07T09:07:32;24.98;;;17.38;;
54883;SDS011;40776;52.880;6.016;2023-05-07T09:10:00;25.70;;;18.15;;
54883;SDS011;40776;52.880;6.016;2023-05-07T09:12:26;26.75;;;18.83;;
54883;SDS011;40776;52.880;6.016;2023-05-07T09:14:53;26.50;;;18.33;;
54883;SDS011;40776;52.880;6.016;2023-05-07T09:17:19;28.13;;;18.90;;
54883;SDS011;40776;52.880;6.016;2023-05-07T09:19:45;28.48;;;19.05;;
54883;SDS011;40776;52.880;6.016;2023-05-07T09:22:11;28.80;;;18.20;;
54883;SDS011;40776;52.880;6.016;2023-05-07T09:24:37;25.75;;;18.50;;
54883;SDS011;40776;52.880;6.016;2023-05-07T09:27:04;27.48;;;19.73;;
54883;SDS011;40776;52.880;6.016;2023-05-07T09:29:30;30.52;;;20.15;;
54883;SDS011;40776;52.880;6.016;2023-05-07T09:32:06;27.08;;;19.30;;
54883;SDS011;40776;52.880;6.016;2023-05-07T09:34:33;26.73;;;19.98;;
54883;SDS011;40776;52.880;6.016;2023-05-07T09:37:02;25.15;;;18.60;;
54883;SDS011;40776;52.880;6.016;2023-05-07T09:39:45;27.80;;;20.33;;
54883;SDS011;40776;52.880;6.016;2023-05-07T09:42:12;27.38;;;18.67;;
54883;SDS011;40776;52.880;6.016;2023-05-07T09:44:40;26.75;;;18.58;;
54883;SDS011;40776;52.880;6.016;2023-05-07T09:47:07;26.17;;;19.60;;
54883;SDS011;40776;52.880;6.016;2023-05-07T09:49:35;25.73;;;18.05;;
54883;SDS011;40776;52.880;6.016;2023-05-07T09:52:02;27.63;;;19.65;;
54883;SDS011;40776;52.880;6.016;2023-05-07T09:54:29;28.35;;;20.55;;
54883;SDS011;40776;52.880;6.016;2023-05-07T09:56:57;34.17;;;20.10;;
54883;SDS011;40776;52.880;6.016;2023-05-07T09:59:24;31.88;;;20.55;;
54883;SDS011;40776;52.880;6.016;2023-05-07T10:01:51;29.25;;;19.58;;
54883;SDS011;40776;52.880;6.016;2023-05-07T10:04:18;25.27;;;18.40;;
54883;SDS011;40776;52.880;6.016;2023-05-07T10:06:44;28.48;;;19.92;;
54883;SDS011;40776;52.880;6.016;2023-05-07T10:09:10;25.35;;;19.23;;
54883;SDS011;40776;52.880;6.016;2023-05-07T10:11:36;28.13;;;18.92;;
54883;SDS011;40776;52.880;6.016;2023-05-07T10:14:03;27.90;;;19.35;;
54883;SDS011;40776;52.880;6.016;2023-05-07T10:16:31;24.58;;;17.73;;
54883;SDS011;40776;52.880;6.016;2023-05-07T10:19:03;27.60;;;19.30;;
54883;SDS011;40776;52.880;6.016;2023-05-07T10:21:30;30.38;;;19.67;;
54883;SDS011;40776;52.880;6.016;2023-05-07T10:24:00;27.90;;;18.48;;
54883;SDS011;40776;52.880;6.016;2023-05-07T10:26:35;26.83;;;19.05;;
54883;SDS011;40776;52.880;6.016;2023-05-07T10:29:05;29.17;;;20.40;;
54883;SDS011;40776;52.880;6.016;2023-05-07T10:31:44;26.77;;;17.27;;
54883;SDS011;40776;52.880;6.016;2023-05-07T10:34:35;26.00;;;18.25;;
54883;SDS011;40776;52.880;6.016;2023-05-07T10:37:02;24.65;;;18.50;;
54883;SDS011;40776;52.880;6.016;2023-05-07T10:39:29;23.73;;;18.85;;
54883;SDS011;40776;52.880;6.016;2023-05-07T10:41:55;28.33;;;18.50;;
54883;SDS011;40776;52.880;6.016;2023-05-07T10:44:25;24.48;;;17.75;;
54883;SDS011;40776;52.880;6.016;2023-05-07T10:47:07;23.20;;;18.55;;
54883;SDS011;40776;52.880;6.016;2023-05-07T10:50:18;27.85;;;19.73;;
54883;SDS011;40776;52.880;6.016;2023-05-07T10:52:31;28.83;;;19.55;;
54883;SDS011;40776;52.880;6.016;2023-05-07T10:57:46;24.63;;;18.00;;
54883;SDS011;40776;52.880;6.016;2023-05-07T11:05:31;26.88;;;18.00;;
54883;SDS011;40776;52.880;6.016;2023-05-07T11:07:58;25.35;;;17.98;;
54883;SDS011;40776;52.880;6.016;2023-05-07T11:13:12;26.33;;;17.55;;
54883;SDS011;40776;52.880;6.016;2023-05-07T11:15:39;27.83;;;18.10;;
54883;SDS011;40776;52.880;6.016;2023-05-07T11:18:06;24.60;;;17.98;;
54883;SDS011;40776;52.880;6.016;2023-05-07T11:20:52;28.15;;;17.65;;
54883;SDS011;40776;52.880;6.016;2023-05-07T11:26:06;26.27;;;18.70;;
54883;SDS011;40776;52.880;6.016;2023-05-07T11:28:36;24.10;;;18.05;;
54883;SDS011;40776;52.880;6.016;2023-05-07T11:31:03;28.30;;;17.85;;
54883;SDS011;40776;52.880;6.016;2023-05-07T11:36:02;22.92;;;16.92;;
54883;SDS011;40776;52.880;6.016;2023-05-07T11:38:30;26.02;;;17.73;;
54883;SDS011;40776;52.880;6.016;2023-05-07T11:40:56;25.65;;;17.63;;
54883;SDS011;40776;52.880;6.016;2023-05-07T11:43:24;24.23;;;17.80;;
54883;SDS011;40776;52.880;6.016;2023-05-07T11:45:50;29.83;;;18.85;;
54883;SDS011;40776;52.880;6.016;2023-05-07T11:48:16;24.38;;;17.42;;
54883;SDS011;40776;52.880;6.016;2023-05-07T11:50:53;22.75;;;16.65;;
54883;SDS011;40776;52.880;6.016;2023-05-07T11:53:24;25.23;;;17.42;;
54883;SDS011;40776;52.880;6.016;2023-05-07T11:55:56;25.35;;;18.23;;
54883;SDS011;40776;52.880;6.016;2023-05-07T11:58:22;23.33;;;17.45;;
54883;SDS011;40776;52.880;6.016;2023-05-07T12:00:49;24.92;;;18.30;;
54883;SDS011;40776;52.880;6.016;2023-05-07T12:03:15;24.20;;;17.50;;
54883;SDS011;40776;52.880;6.016;2023-05-07T12:05:43;23.17;;;17.58;;
54883;SDS011;40776;52.880;6.016;2023-05-07T12:08:13;21.52;;;16.55;;
54883;SDS011;40776;52.880;6.016;2023-05-07T12:10:41;24.25;;;17.27;;
54883;SDS011;40776;52.880;6.016;2023-05-07T12:13:14;23.60;;;16.83;;
54883;SDS011;40776;52.880;6.016;2023-05-07T12:15:42;22.55;;;16.15;;
54883;SDS011;40776;52.880;6.016;2023-05-07T12:18:08;20.27;;;15.68;;
54883;SDS011;40776;52.880;6.016;2023-05-07T12:20:35;21.38;;;15.80;;
54883;SDS011;40776;52.880;6.016;2023-05-07T12:23:02;20.10;;;15.15;;
54883;SDS011;40776;52.880;6.016;2023-05-07T12:25:34;19.27;;;14.98;;
54883;SDS011;40776;52.880;6.016;2023-05-07T12:28:01;20.17;;;15.82;;
54883;SDS011;40776;52.880;6.016;2023-05-07T12:30:30;20.98;;;15.88;;
54883;SDS011;40776;52.880;6.016;2023-05-07T12:32:56;21.27;;;15.57;;
54883;SDS011;40776;52.880;6.016;2023-05-07T12:35:28;22.08;;;15.95;;
54883;SDS011;40776;52.880;6.016;2023-05-07T12:37:55;21.70;;;16.42;;
54883;SDS011;40776;52.880;6.016;2023-05-07T12:40:23;20.65;;;16.15;;
54883;SDS011;40776;52.880;6.016;2023-05-07T12:42:52;20.05;;;15.57;;
54883;SDS011;40776;52.880;6.016;2023-05-07T12:45:21;21.80;;;14.63;;
54883;SDS011;40776;52.880;6.016;2023-05-07T12:47:47;20.10;;;14.50;;
54883;SDS011;40776;52.880;6.016;2023-05-07T12:50:13;21.02;;;15.00;;
54883;SDS011;40776;52.880;6.016;2023-05-07T12:52:40;19.00;;;14.57;;
54883;SDS011;40776;52.880;6.016;2023-05-07T12:55:07;17.75;;;13.35;;
54883;SDS011;40776;52.880;6.016;2023-05-07T12:57:43;16.35;;;12.60;;
54883;SDS011;40776;52.880;6.016;2023-05-07T13:00:11;16.13;;;13.35;;
54883;SDS011;40776;52.880;6.016;2023-05-07T13:02:38;15.52;;;12.77;;
54883;SDS011;40776;52.880;6.016;2023-05-07T13:05:05;14.93;;;12.25;;
54883;SDS011;40776;52.880;6.016;2023-05-07T13:07:31;18.45;;;13.80;;
54883;SDS011;40776;52.880;6.016;2023-05-07T13:09:57;18.33;;;13.85;;
54883;SDS011;40776;52.880;6.016;2023-05-07T13:12:23;20.27;;;14.20;;
54883;SDS011;40776;52.880;6.016;2023-05-07T13:14:49;18.90;;;15.82;;
54883;SDS011;40776;52.880;6.016;2023-05-07T13:17:15;17.55;;;13.68;;
54883;SDS011;40776;52.880;6.016;2023-05-07T13:19:41;17.25;;;12.93;;
54883;SDS011;40776;52.880;6.016;2023-05-07T13:22:07;18.38;;;12.27;;
54883;SDS011;40776;52.880;6.016;2023-05-07T13:24:33;14.90;;;11.10;;
54883;SDS011;40776;52.880;6.016;2023-05-07T13:26:59;15.63;;;11.43;;
54883;SDS011;40776;52.880;6.016;2023-05-07T13:29:25;17.20;;;12.70;;
54883;SDS011;40776;52.880;6.016;2023-05-07T13:31:58;15.68;;;11.30;;
54883;SDS011;40776;52.880;6.016;2023-05-07T13:34:24;17.25;;;13.32;;
54883;SDS011;40776;52.880;6.016;2023-05-07T13:36:51;19.98;;;13.45;;
54883;SDS011;40776;52.880;6.016;2023-05-07T13:39:17;16.80;;;13.23;;
54883;SDS011;40776;52.880;6.016;2023-05-07T13:41:43;16.60;;;12.30;;
54883;SDS011;40776;52.880;6.016;2023-05-07T13:44:09;15.35;;;11.02;;
54883;SDS011;40776;52.880;6.016;2023-05-07T13:46:35;17.92;;;12.60;;
54883;SDS011;40776;52.880;6.016;2023-05-07T13:49:01;16.27;;;12.30;;
54883;SDS011;40776;52.880;6.016;2023-05-07T13:51:27;14.10;;;11.45;;
54883;SDS011;40776;52.880;6.016;2023-05-07T13:53:53;16.17;;;12.25;;
54883;SDS011;40776;52.880;6.016;2023-05-07T13:56:19;16.13;;;11.32;;
54883;SDS011;40776;52.880;6.016;2023-05-07T13:58:46;13.80;;;10.35;;
54883;SDS011;40776;52.880;6.016;2023-05-07T14:01:12;12.95;;;9.90;;
54883;SDS011;40776;52.880;6.016;2023-05-07T14:03:38;14.63;;;9.70;;
54883;SDS011;40776;52.880;6.016;2023-05-07T14:06:05;10.93;;;8.15;;
54883;SDS011;40776;52.880;6.016;2023-05-07T14:08:31;14.98;;;9.73;;
54883;SDS011;40776;52.880;6.016;2023-05-07T14:10:57;15.15;;;10.82;;
54883;SDS011;40776;52.880;6.016;2023-05-07T14:13:23;14.23;;;10.43;;
54883;SDS011;40776;52.880;6.016;2023-05-07T14:15:50;17.35;;;11.10;;
54883;SDS011;40776;52.880;6.016;2023-05-07T14:18:16;16.30;;;12.52;;
54883;SDS011;40776;52.880;6.016;2023-05-07T14:20:42;16.27;;;10.65;;
54883;SDS011;40776;52.880;6.016;2023-05-07T14:23:08;16.05;;;11.07;;
54883;SDS011;40776;52.880;6.016;2023-05-07T14:25:34;12.95;;;10.38;;
54883;SDS011;40776;52.880;6.016;2023-05-07T14:28:01;15.13;;;10.77;;
54883;SDS011;40776;52.880;6.016;2023-05-07T14:30:27;13.07;;;10.35;;
54883;SDS011;40776;52.880;6.016;2023-05-07T14:32:53;16.75;;;10.80;;
54883;SDS011;40776;52.880;6.016;2023-05-07T14:35:19;13.25;;;10.38;;
54883;SDS011;40776;52.880;6.016;2023-05-07T14:37:45;15.13;;;11.52;;